sensor_id;sensor_type;location;lat;lon;timestamp;pressure;altitude;pressure_sealevel;temperature;humidity
72585;BME280;60618;40.084;32.908;2023-02-13T00:00:22;90415.78;;;-3.62;64.27
72585;BME280;60618;40.084;32.908;2023-02-13T00:02:49;90430.03;;;-3.49;64.47
72585;BME280;60618;40.084;32.908;2023-02-13T00:05:17;90431.47;;;-3.51;64.84
72585;BME280;60618;40.084;32.908;2023-02-13T00:07:44;90423.97;;;-3.63;64.73
72585;BME280;60618;40.084;32.908;2023-02-13T00:10:11;90428.41;;;-3.67;65.49
72585;BME280;60618;40.084;32.908;2023-02-13T00:12:38;90421.47;;;-3.97;66.44
72585;BME280;60618;40.084;32.908;2023-02-13T00:15:06;90423.25;;;-4.05;66.31
72585;BME280;60618;40.084;32.908;2023-02-13T00:17:34;90420.91;;;-4.20;66.80
72585;BME280;60618;40.084;32.908;2023-02-13T00:20:02;90412.09;;;-4.05;67.80
72585;BME280;60618;40.084;32.908;2023-02-13T00:22:34;90440.91;;;-4.28;68.18
72585;BME280;60618;40.084;32.908;2023-02-13T00:25:02;90431.25;;;-4.28;68.05
72585;BME280;60618;40.084;32.908;2023-02-13T00:27:29;90432.06;;;-4.57;69.77
72585;BME280;60618;40.084;32.908;2023-02-13T00:29:56;90423.09;;;-4.60;70.34
72585;BME280;60618;40.084;32.908;2023-02-13T00:32:23;90423.84;;;-4.59;69.63
72585;BME280;60618;40.084;32.908;2023-02-13T00:34:50;90419.41;;;-4.59;70.08
72585;BME280;60618;40.084;32.908;2023-02-13T00:37:17;90438.50;;;-4.77;70.70
72585;BME280;60618;40.084;32.908;2023-02-13T00:39:44;90420.59;;;-4.86;72.44
72585;BME280;60618;40.084;32.908;2023-02-13T00:42:11;90426.22;;;-4.80;72.36
72585;BME280;60618;40.084;32.908;2023-02-13T00:44:38;90419.47;;;-4.55;71.91
72585;BME280;60618;40.084;32.908;2023-02-13T00:47:05;90420.38;;;-4.74;72.47
72585;BME280;60618;40.084;32.908;2023-02-13T00:49:32;90426.69;;;-4.75;72.71
72585;BME280;60618;40.084;32.908;2023-02-13T00:51:59;90413.63;;;-4.45;72.33
72585;BME280;60618;40.084;32.908;2023-02-13T00:54:26;90422.34;;;-4.26;71.98
72585;BME280;60618;40.084;32.908;2023-02-13T00:56:53;90423.53;;;-4.17;72.96
72585;BME280;60618;40.084;32.908;2023-02-13T00:59:20;90424.22;;;-4.23;72.41
72585;BME280;60618;40.084;32.908;2023-02-13T01:01:47;90414.25;;;-4.18;71.05
72585;BME280;60618;40.084;32.908;2023-02-13T01:04:13;90418.75;;;-4.11;71.38
72585;BME280;60618;40.084;32.908;2023-02-13T01:06:40;90425.41;;;-4.14;71.36
72585;BME280;60618;40.084;32.908;2023-02-13T01:09:07;90423.44;;;-3.83;70.21
72585;BME280;60618;40.084;32.908;2023-02-13T01:11:34;90417.13;;;-3.82;70.01
72585;BME280;60618;40.084;32.908;2023-02-13T01:14:01;90421.31;;;-3.71;70.12
72585;BME280;60618;40.084;32.908;2023-02-13T01:16:28;90412.81;;;-3.60;69.99
72585;BME280;60618;40.084;32.908;2023-02-13T01:18:55;90429.91;;;-3.63;69.65
72585;BME280;60618;40.084;32.908;2023-02-13T01:21:22;90415.03;;;-3.62;68.93
72585;BME280;60618;40.084;32.908;2023-02-13T01:23:49;90417.34;;;-3.54;69.08
72585;BME280;60618;40.084;32.908;2023-02-13T01:26:19;90431.84;;;-3.53;68.19
72585;BME280;60618;40.084;32.908;2023-02-13T01:28:46;90433.75;;;-3.46;67.73
72585;BME280;60618;40.084;32.908;2023-02-13T01:31:13;90436.41;;;-3.90;70.40
72585;BME280;60618;40.084;32.908;2023-02-13T01:33:40;90452.56;;;-4.11;72.05
72585;BME280;60618;40.084;32.908;2023-02-13T01:36:09;90438.97;;;-4.35;73.15
72585;BME280;60618;40.084;32.908;2023-02-13T01:38:37;90435.44;;;-4.53;74.49
72585;BME280;60618;40.084;32.908;2023-02-13T01:41:04;90434.50;;;-4.38;73.38
72585;BME280;60618;40.084;32.908;2023-02-13T01:43:52;90437.53;;;-4.29;73.69
72585;BME280;60618;40.084;32.908;2023-02-13T01:46:43;90450.09;;;-4.38;73.38
72585;BME280;60618;40.084;32.908;2023-02-13T01:49:14;90452.56;;;-4.82;75.63
72585;BME280;60618;40.084;32.908;2023-02-13T01:51:44;90456.06;;;-5.01;76.75
72585;BME280;60618;40.084;32.908;2023-02-13T01:54:15;90456.34;;;-5.06;78.10
72585;BME280;60618;40.084;32.908;2023-02-13T01:56:56;90462.16;;;-4.86;77.31
72585;BME280;60618;40.084;32.908;2023-02-13T01:59:31;90462.41;;;-4.95;77.63
72585;BME280;60618;40.084;32.908;2023-02-13T02:02:00;90462.50;;;-5.18;78.61
72585;BME280;60618;40.084;32.908;2023-02-13T02:04:32;90468.56;;;-5.36;79.49
72585;BME280;60618;40.084;32.908;2023-02-13T02:07:18;90468.66;;;-5.29;79.54
72585;BME280;60618;40.084;32.908;2023-02-13T02:09:46;90471.94;;;-5.32;79.92
72585;BME280;60618;40.084;32.908;2023-02-13T02:12:22;90479.34;;;-5.34;78.60
72585;BME280;60618;40.084;32.908;2023-02-13T02:14:52;90463.88;;;-4.97;77.02
72585;BME280;60618;40.084;32.908;2023-02-13T02:17:22;90479.66;;;-4.83;75.62
72585;BME280;60618;40.084;32.908;2023-02-13T02:20:10;90470.63;;;-4.59;74.51
72585;BME280;60618;40.084;32.908;2023-02-13T02:47:58;90495.41;;;-4.99;78.81
72585;BME280;60618;40.084;32.908;2023-02-13T02:53:15;90506.94;;;-4.66;78.88
72585;BME280;60618;40.084;32.908;2023-02-13T02:58:36;90511.13;;;-4.24;77.33
72585;BME280;60618;40.084;32.908;2023-02-13T03:01:07;90511.88;;;-4.24;77.47
72585;BME280;60618;40.084;32.908;2023-02-13T03:03:36;90498.34;;;-4.03;76.21
72585;BME280;60618;40.084;32.908;2023-02-13T03:06:08;90502.94;;;-3.89;75.30
72585;BME280;60618;40.084;32.908;2023-02-13T03:08:51;90530.16;;;-3.80;75.20
72585;BME280;60618;40.084;32.908;2023-02-13T03:11:18;90515.59;;;-3.88;74.48
72585;BME280;60618;40.084;32.908;2023-02-13T03:13:47;90523.81;;;-3.86;74.62
72585;BME280;60618;40.084;32.908;2023-02-13T03:16:19;90532.34;;;-3.85;74.98
72585;BME280;60618;40.084;32.908;2023-02-13T03:18:55;90524.75;;;-4.01;74.86
72585;BME280;60618;40.084;32.908;2023-02-13T03:21:30;90538.31;;;-4.18;75.70
72585;BME280;60618;40.084;32.908;2023-02-13T03:24:19;90538.13;;;-4.66;78.87
72585;BME280;60618;40.084;32.908;2023-02-13T03:27:05;90542.41;;;-4.77;80.82
72585;BME280;60618;40.084;32.908;2023-02-13T03:29:52;90536.94;;;-4.72;81.12
72585;BME280;60618;40.084;32.908;2023-02-13T03:34:59;90556.53;;;-5.05;80.97
72585;BME280;60618;40.084;32.908;2023-02-13T03:37:34;90552.44;;;-5.06;81.01
72585;BME280;60618;40.084;32.908;2023-02-13T03:40:15;90547.19;;;-5.09;80.86
72585;BME280;60618;40.084;32.908;2023-02-13T03:43:00;90548.44;;;-5.00;81.01
72585;BME280;60618;40.084;32.908;2023-02-13T03:45:35;90556.00;;;-4.61;79.67
72585;BME280;60618;40.084;32.908;2023-02-13T03:48:04;90557.78;;;-4.39;78.60
72585;BME280;60618;40.084;32.908;2023-02-13T03:50:35;90563.97;;;-4.17;77.38
72585;BME280;60618;40.084;32.908;2023-02-13T03:53:10;90558.53;;;-4.05;77.49
72585;BME280;60618;40.084;32.908;2023-02-13T03:55:41;90557.63;;;-3.86;76.55
72585;BME280;60618;40.084;32.908;2023-02-13T03:58:15;90569.19;;;-3.80;75.77
72585;BME280;60618;40.084;32.908;2023-02-13T04:00:48;90570.94;;;-3.91;76.70
72585;BME280;60618;40.084;32.908;2023-02-13T04:03:41;90561.34;;;-3.83;75.76
72585;BME280;60618;40.084;32.908;2023-02-13T04:06:18;90572.78;;;-3.91;77.29
72585;BME280;60618;40.084;32.908;2023-02-13T04:08:45;90563.03;;;-3.64;75.80
72585;BME280;60618;40.084;32.908;2023-02-13T04:11:23;90562.38;;;-3.54;75.91
72585;BME280;60618;40.084;32.908;2023-02-13T04:13:55;90558.34;;;-3.48;74.69
72585;BME280;60618;40.084;32.908;2023-02-13T04:16:30;90563.19;;;-3.47;74.56
72585;BME280;60618;40.084;32.908;2023-02-13T04:18:59;90559.50;;;-3.42;74.99
72585;BME280;60618;40.084;32.908;2023-02-13T04:21:27;90546.75;;;-3.54;74.53
72585;BME280;60618;40.084;32.908;2023-02-13T04:23:57;90552.78;;;-3.43;74.07
72585;BME280;60618;40.084;32.908;2023-02-13T04:26:31;90550.09;;;-3.57;73.57
72585;BME280;60618;40.084;32.908;2023-02-13T04:28:59;90546.28;;;-3.67;74.78
72585;BME280;60618;40.084;32.908;2023-02-13T04:31:26;90556.19;;;-3.80;74.57
72585;BME280;60618;40.084;32.908;2023-02-13T04:33:53;90552.81;;;-3.84;74.62
72585;BME280;60618;40.084;32.908;2023-02-13T04:36:20;90561.78;;;-3.78;74.52
72585;BME280;60618;40.084;32.908;2023-02-13T04:38:47;90566.28;;;-3.75;74.00
72585;BME280;60618;40.084;32.908;2023-02-13T04:41:14;90563.75;;;-3.67;74.12
72585;BME280;60618;40.084;32.908;2023-02-13T04:43:41;90567.59;;;-3.54;73.67
72585;BME280;60618;40.084;32.908;2023-02-13T04:46:08;90577.38;;;-3.40;73.62
72585;BME280;60618;40.084;32.908;2023-02-13T04:48:35;90581.63;;;-3.62;74.31
72585;BME280;60618;40.084;32.908;2023-02-13T04:51:04;90597.25;;;-3.96;74.78
72585;BME280;60618;40.084;32.908;2023-02-13T04:53:31;90593.97;;;-3.93;75.18
72585;BME280;60618;40.084;32.908;2023-02-13T04:55:58;90600.81;;;-3.78;76.49
72585;BME280;60618;40.084;32.908;2023-02-13T04:58:25;90593.53;;;-3.98;76.45
72585;BME280;60618;40.084;32.908;2023-02-13T05:00:52;90600.50;;;-3.73;75.95
72585;BME280;60618;40.084;32.908;2023-02-13T05:03:19;90602.09;;;-3.61;75.43
72585;BME280;60618;40.084;32.908;2023-02-13T05:05:47;90593.03;;;-3.37;74.21
72585;BME280;60618;40.084;32.908;2023-02-13T05:08:15;90616.09;;;-3.39;74.83
72585;BME280;60618;40.084;32.908;2023-02-13T05:10:41;90600.47;;;-3.39;74.23
72585;BME280;60618;40.084;32.908;2023-02-13T05:13:08;90611.53;;;-3.49;74.23
72585;BME280;60618;40.084;32.908;2023-02-13T05:15:35;90606.66;;;-3.88;74.90
72585;BME280;60618;40.084;32.908;2023-02-13T05:18:02;90622.00;;;-4.13;77.59
72585;BME280;60618;40.084;32.908;2023-02-13T05:20:29;90609.50;;;-4.00;77.56
72585;BME280;60618;40.084;32.908;2023-02-13T05:22:58;90614.66;;;-3.70;76.35
72585;BME280;60618;40.084;32.908;2023-02-13T05:25:25;90613.41;;;-3.46;76.39
72585;BME280;60618;40.084;32.908;2023-02-13T05:27:51;90613.88;;;-3.37;76.05
72585;BME280;60618;40.084;32.908;2023-02-13T05:30:18;90620.88;;;-3.00;76.41
72585;BME280;60618;40.084;32.908;2023-02-13T05:32:45;90625.09;;;-2.85;75.37
72585;BME280;60618;40.084;32.908;2023-02-13T05:35:12;90624.81;;;-2.73;73.56
72585;BME280;60618;40.084;32.908;2023-02-13T05:37:41;90625.63;;;-2.62;73.17
72585;BME280;60618;40.084;32.908;2023-02-13T05:40:08;90636.50;;;-2.56;72.75
72585;BME280;60618;40.084;32.908;2023-02-13T05:42:36;90651.72;;;-2.62;72.77
72585;BME280;60618;40.084;32.908;2023-02-13T05:45:03;90640.59;;;-2.55;72.54
72585;BME280;60618;40.084;32.908;2023-02-13T05:47:30;90621.38;;;-2.29;73.05
72585;BME280;60618;40.084;32.908;2023-02-13T05:49:57;90632.78;;;-1.86;72.07
72585;BME280;60618;40.084;32.908;2023-02-13T05:52:24;90634.78;;;-1.51;71.25
72585;BME280;60618;40.084;32.908;2023-02-13T05:54:51;90640.06;;;-1.19;69.30
72585;BME280;60618;40.084;32.908;2023-02-13T05:57:18;90641.22;;;-1.02;67.79
72585;BME280;60618;40.084;32.908;2023-02-13T05:59:45;90628.09;;;-1.37;68.19
72585;BME280;60618;40.084;32.908;2023-02-13T06:02:12;90640.38;;;-1.49;69.36
72585;BME280;60618;40.084;32.908;2023-02-13T06:04:39;90637.41;;;-1.40;69.73
72585;BME280;60618;40.084;32.908;2023-02-13T06:07:06;90639.53;;;-1.74;70.20
72585;BME280;60618;40.084;32.908;2023-02-13T06:09:32;90651.38;;;-1.94;70.72
72585;BME280;60618;40.084;32.908;2023-02-13T06:11:59;90647.00;;;-1.73;69.99
72585;BME280;60618;40.084;32.908;2023-02-13T06:14:26;90647.50;;;-1.35;69.66
72585;BME280;60618;40.084;32.908;2023-02-13T06:16:53;90643.09;;;-0.84;67.57
72585;BME280;60618;40.084;32.908;2023-02-13T06:19:20;90650.22;;;-0.67;66.41
72585;BME280;60618;40.084;32.908;2023-02-13T06:21:47;90648.34;;;-0.60;65.85
72585;BME280;60618;40.084;32.908;2023-02-13T06:24:14;90658.06;;;-0.60;65.74
72585;BME280;60618;40.084;32.908;2023-02-13T06:26:41;90650.91;;;-1.20;65.65
72585;BME280;60618;40.084;32.908;2023-02-13T06:29:07;90659.81;;;-1.35;67.97
72585;BME280;60618;40.084;32.908;2023-02-13T06:31:35;90649.72;;;-1.40;67.69
72585;BME280;60618;40.084;32.908;2023-02-13T06:34:02;90645.91;;;-1.64;68.80
72585;BME280;60618;40.084;32.908;2023-02-13T06:36:29;90655.97;;;-1.70;69.76
72585;BME280;60618;40.084;32.908;2023-02-13T06:38:56;90650.75;;;-1.63;69.82
72585;BME280;60618;40.084;32.908;2023-02-13T06:41:23;90651.75;;;-1.89;69.05
72585;BME280;60618;40.084;32.908;2023-02-13T06:43:49;90645.38;;;-1.98;70.85
72585;BME280;60618;40.084;32.908;2023-02-13T06:46:17;90653.63;;;-1.89;71.35
72585;BME280;60618;40.084;32.908;2023-02-13T06:48:44;90655.81;;;-2.02;70.86
72585;BME280;60618;40.084;32.908;2023-02-13T06:51:11;90649.69;;;-2.28;71.42
72585;BME280;60618;40.084;32.908;2023-02-13T06:53:38;90659.34;;;-2.35;71.44
72585;BME280;60618;40.084;32.908;2023-02-13T06:56:05;90666.88;;;-2.23;72.30
72585;BME280;60618;40.084;32.908;2023-02-13T06:58:32;90661.41;;;-2.00;71.24
72585;BME280;60618;40.084;32.908;2023-02-13T07:00:59;90658.75;;;-2.07;70.97
72585;BME280;60618;40.084;32.908;2023-02-13T07:03:26;90662.81;;;-2.17;70.55
72585;BME280;60618;40.084;32.908;2023-02-13T07:05:53;90673.97;;;-2.20;71.31
72585;BME280;60618;40.084;32.908;2023-02-13T07:08:21;90680.44;;;-2.58;71.07
72585;BME280;60618;40.084;32.908;2023-02-13T07:10:48;90673.13;;;-2.86;73.49
72585;BME280;60618;40.084;32.908;2023-02-13T07:13:15;90671.78;;;-2.69;73.04
72585;BME280;60618;40.084;32.908;2023-02-13T07:15:43;90671.25;;;-2.41;72.17
72585;BME280;60618;40.084;32.908;2023-02-13T07:18:10;90669.22;;;-2.62;72.32
72585;BME280;60618;40.084;32.908;2023-02-13T07:20:37;90676.47;;;-2.41;72.31
72585;BME280;60618;40.084;32.908;2023-02-13T07:23:04;90677.03;;;-2.07;71.45
72585;BME280;60618;40.084;32.908;2023-02-13T07:25:32;90671.69;;;-1.56;70.91
72585;BME280;60618;40.084;32.908;2023-02-13T07:28:03;90682.31;;;-0.95;70.42
72585;BME280;60618;40.084;32.908;2023-02-13T07:30:32;90681.59;;;-0.74;67.97
72585;BME280;60618;40.084;32.908;2023-02-13T07:33:03;90679.75;;;-0.49;66.98
72585;BME280;60618;40.084;32.908;2023-02-13T07:35:31;90683.09;;;-0.88;66.52
72585;BME280;60618;40.084;32.908;2023-02-13T07:37:58;90687.16;;;-1.01;67.44
72585;BME280;60618;40.084;32.908;2023-02-13T07:40:25;90688.94;;;-1.26;68.57
72585;BME280;60618;40.084;32.908;2023-02-13T07:42:52;90685.19;;;-1.39;69.23
72585;BME280;60618;40.084;32.908;2023-02-13T07:45:19;90689.75;;;-1.15;69.36
72585;BME280;60618;40.084;32.908;2023-02-13T07:47:46;90690.50;;;-1.00;68.83
72585;BME280;60618;40.084;32.908;2023-02-13T07:50:13;90684.19;;;-0.92;68.30
72585;BME280;60618;40.084;32.908;2023-02-13T07:52:40;90678.63;;;-0.76;66.63
72585;BME280;60618;40.084;32.908;2023-02-13T07:55:08;90680.09;;;-0.18;66.80
72585;BME280;60618;40.084;32.908;2023-02-13T07:57:35;90683.31;;;0.53;67.65
72585;BME280;60618;40.084;32.908;2023-02-13T08:00:03;90674.69;;;1.33;66.08
72585;BME280;60618;40.084;32.908;2023-02-13T08:02:30;90679.63;;;1.76;61.09
72585;BME280;60618;40.084;32.908;2023-02-13T08:04:57;90679.22;;;1.81;59.40
72585;BME280;60618;40.084;32.908;2023-02-13T08:07:23;90684.19;;;2.17;61.29
72585;BME280;60618;40.084;32.908;2023-02-13T08:09:50;90678.19;;;2.13;58.64
72585;BME280;60618;40.084;32.908;2023-02-13T08:12:17;90671.09;;;2.47;57.37
72585;BME280;60618;40.084;32.908;2023-02-13T08:14:44;90679.00;;;2.06;58.99
72585;BME280;60618;40.084;32.908;2023-02-13T08:17:12;90682.75;;;1.01;61.64
72585;BME280;60618;40.084;32.908;2023-02-13T08:19:39;90684.50;;;0.45;62.40
72585;BME280;60618;40.084;32.908;2023-02-13T08:22:06;90683.78;;;0.31;64.55
72585;BME280;60618;40.084;32.908;2023-02-13T08:24:33;90692.47;;;-0.26;65.12
72585;BME280;60618;40.084;32.908;2023-02-13T08:27:00;90678.63;;;-0.23;65.42
72585;BME280;60618;40.084;32.908;2023-02-13T08:29:26;90676.38;;;-0.17;65.42
72585;BME280;60618;40.084;32.908;2023-02-13T08:31:54;90681.97;;;-0.08;64.20
72585;BME280;60618;40.084;32.908;2023-02-13T08:34:21;90682.28;;;0.26;65.30
72585;BME280;60618;40.084;32.908;2023-02-13T08:36:47;90676.72;;;-0.05;65.12
72585;BME280;60618;40.084;32.908;2023-02-13T08:39:14;90690.56;;;0.03;64.01
72585;BME280;60618;40.084;32.908;2023-02-13T08:41:41;90683.81;;;0.13;62.75
72585;BME280;60618;40.084;32.908;2023-02-13T08:44:09;90685.59;;;0.48;63.39
72585;BME280;60618;40.084;32.908;2023-02-13T08:46:36;90684.44;;;0.60;62.97
72585;BME280;60618;40.084;32.908;2023-02-13T08:49:03;90664.81;;;0.89;62.94
72585;BME280;60618;40.084;32.908;2023-02-13T08:51:31;90666.97;;;1.08;62.49
72585;BME280;60618;40.084;32.908;2023-02-13T08:53:58;90680.53;;;1.00;60.24
72585;BME280;60618;40.084;32.908;2023-02-13T08:56:26;90665.13;;;1.02;60.06
72585;BME280;60618;40.084;32.908;2023-02-13T08:58:55;90654.56;;;1.72;59.38
72585;BME280;60618;40.084;32.908;2023-02-13T09:01:22;90659.69;;;1.37;58.22
72585;BME280;60618;40.084;32.908;2023-02-13T09:03:49;90657.09;;;1.30;58.35
72585;BME280;60618;40.084;32.908;2023-02-13T09:06:16;90653.16;;;1.53;58.11
72585;BME280;60618;40.084;32.908;2023-02-13T09:08:43;90660.34;;;1.93;56.79
72585;BME280;60618;40.084;32.908;2023-02-13T09:11:10;90657.72;;;1.93;55.36
72585;BME280;60618;40.084;32.908;2023-02-13T09:13:37;90659.44;;;2.11;55.81
72585;BME280;60618;40.084;32.908;2023-02-13T09:16:06;90656.25;;;2.64;56.57
72585;BME280;60618;40.084;32.908;2023-02-13T09:18:33;90643.97;;;2.88;51.18
72585;BME280;60618;40.084;32.908;2023-02-13T09:21:03;90650.69;;;3.20;52.58
72585;BME280;60618;40.084;32.908;2023-02-13T09:23:32;90653.38;;;3.43;48.95
72585;BME280;60618;40.084;32.908;2023-02-13T09:26:05;90643.34;;;3.58;48.20
72585;BME280;60618;40.084;32.908;2023-02-13T09:28:34;90637.00;;;4.02;49.08
72585;BME280;60618;40.084;32.908;2023-02-13T09:31:09;90636.84;;;3.89;46.21
72585;BME280;60618;40.084;32.908;2023-02-13T09:33:36;90628.31;;;4.05;47.91
72585;BME280;60618;40.084;32.908;2023-02-13T09:36:09;90628.56;;;4.34;48.59
72585;BME280;60618;40.084;32.908;2023-02-13T09:38:36;90619.38;;;3.99;45.47
72585;BME280;60618;40.084;32.908;2023-02-13T09:41:10;90618.13;;;4.47;48.82
72585;BME280;60618;40.084;32.908;2023-02-13T09:43:57;90627.13;;;4.30;45.41
72585;BME280;60618;40.084;32.908;2023-02-13T09:46:38;90620.16;;;3.49;46.22
72585;BME280;60618;40.084;32.908;2023-02-13T09:49:12;90607.63;;;3.57;46.78
72585;BME280;60618;40.084;32.908;2023-02-13T09:51:43;90610.59;;;3.59;47.71
72585;BME280;60618;40.084;32.908;2023-02-13T09:54:15;90611.50;;;2.68;47.48
72585;BME280;60618;40.084;32.908;2023-02-13T10:01:47;90602.41;;;2.42;50.59
72585;BME280;60618;40.084;32.908;2023-02-13T10:04:28;90601.69;;;2.72;47.21
72585;BME280;60618;40.084;32.908;2023-02-13T10:07:11;90592.13;;;3.12;46.92
72585;BME280;60618;40.084;32.908;2023-02-13T10:12:54;90594.59;;;3.73;47.46
72585;BME280;60618;40.084;32.908;2023-02-13T10:15:30;90594.22;;;3.24;50.42
72585;BME280;60618;40.084;32.908;2023-02-13T10:18:07;90594.41;;;3.10;47.64
72585;BME280;60618;40.084;32.908;2023-02-13T10:20:53;90581.84;;;2.94;50.34
72585;BME280;60618;40.084;32.908;2023-02-13T10:23:32;90585.03;;;2.82;50.78
72585;BME280;60618;40.084;32.908;2023-02-13T10:26:05;90582.41;;;2.82;50.43
72585;BME280;60618;40.084;32.908;2023-02-13T10:28:54;90579.78;;;2.82;52.57
72585;BME280;60618;40.084;32.908;2023-02-13T10:31:27;90585.56;;;2.39;53.53
72585;BME280;60618;40.084;32.908;2023-02-13T10:34:01;90583.75;;;1.98;51.14
72585;BME280;60618;40.084;32.908;2023-02-13T10:36:34;90574.75;;;1.99;52.47
72585;BME280;60618;40.084;32.908;2023-02-13T10:50:18;90571.34;;;2.33;52.49
72585;BME280;60618;40.084;32.908;2023-02-13T10:53:31;90573.59;;;2.65;52.12
72585;BME280;60618;40.084;32.908;2023-02-13T11:02:07;90566.75;;;1.73;54.20
72585;BME280;60618;40.084;32.908;2023-02-13T11:04:42;90559.84;;;1.89;54.24
72585;BME280;60618;40.084;32.908;2023-02-13T11:07:14;90566.94;;;2.26;55.98
72585;BME280;60618;40.084;32.908;2023-02-13T11:09:45;90574.56;;;2.14;54.21
72585;BME280;60618;40.084;32.908;2023-02-13T11:14:58;90559.75;;;1.96;55.17
72585;BME280;60618;40.084;32.908;2023-02-13T11:17:29;90557.00;;;1.73;54.05
72585;BME280;60618;40.084;32.908;2023-02-13T11:20:07;90552.59;;;1.63;56.30
72585;BME280;60618;40.084;32.908;2023-02-13T11:23:10;90561.69;;;1.55;54.39
72585;BME280;60618;40.084;32.908;2023-02-13T11:25:55;90556.19;;;1.38;54.82
72585;BME280;60618;40.084;32.908;2023-02-13T11:28:24;90555.28;;;1.56;54.86
72585;BME280;60618;40.084;32.908;2023-02-13T11:31:09;90556.47;;;1.89;54.92
72585;BME280;60618;40.084;32.908;2023-02-13T11:33:40;90544.38;;;2.29;54.06
72585;BME280;60618;40.084;32.908;2023-02-13T11:36:29;90563.78;;;2.05;54.54
72585;BME280;60618;40.084;32.908;2023-02-13T11:39:04;90552.72;;;1.86;52.75
72585;BME280;60618;40.084;32.908;2023-02-13T11:41:42;90543.44;;;2.12;51.69
72585;BME280;60618;40.084;32.908;2023-02-13T11:44:24;90548.16;;;2.28;49.61
72585;BME280;60618;40.084;32.908;2023-02-13T11:46:54;90550.25;;;2.40;50.65
72585;BME280;60618;40.084;32.908;2023-02-13T11:49:23;90549.22;;;2.31;49.80
72585;BME280;60618;40.084;32.908;2023-02-13T11:51:54;90553.56;;;2.75;48.65
72585;BME280;60618;40.084;32.908;2023-02-13T11:54:42;90535.69;;;2.63;48.77
72585;BME280;60618;40.084;32.908;2023-02-13T11:57:20;90532.44;;;2.51;48.66
72585;BME280;60618;40.084;32.908;2023-02-13T11:59:50;90543.25;;;2.61;49.36
72585;BME280;60618;40.084;32.908;2023-02-13T12:02:29;90525.28;;;2.55;46.99
72585;BME280;60618;40.084;32.908;2023-02-13T12:05:16;90527.50;;;2.84;46.38
72585;BME280;60618;40.084;32.908;2023-02-13T12:07:44;90528.34;;;2.77;45.26
72585;BME280;60618;40.084;32.908;2023-02-13T12:13:19;90525.13;;;2.93;43.55
72585;BME280;60618;40.084;32.908;2023-02-13T12:15:57;90528.13;;;3.19;44.29
72585;BME280;60618;40.084;32.908;2023-02-13T12:18:41;90516.09;;;3.18;43.47
72585;BME280;60618;40.084;32.908;2023-02-13T12:21:29;90523.94;;;2.71;45.97
72585;BME280;60618;40.084;32.908;2023-02-13T12:24:05;90521.56;;;2.53;45.44
72585;BME280;60618;40.084;32.908;2023-02-13T12:26:53;90517.88;;;2.74;45.46
72585;BME280;60618;40.084;32.908;2023-02-13T12:32:18;90515.19;;;2.20;46.90
72585;BME280;60618;40.084;32.908;2023-02-13T12:48:56;90521.34;;;2.10;45.23
72585;BME280;60618;40.084;32.908;2023-02-13T12:56:47;90524.69;;;2.71;44.49
72585;BME280;60618;40.084;32.908;2023-02-13T13:12:41;90516.94;;;2.30;37.74
72585;BME280;60618;40.084;32.908;2023-02-13T13:15:35;90515.16;;;2.23;36.33
72585;BME280;60618;40.084;32.908;2023-02-13T13:21:09;90517.41;;;1.91;36.93
72585;BME280;60618;40.084;32.908;2023-02-13T13:26:34;90513.91;;;1.67;35.06
72585;BME280;60618;40.084;32.908;2023-02-13T13:29:34;90510.25;;;1.57;37.42
72585;BME280;60618;40.084;32.908;2023-02-13T13:32:07;90523.59;;;1.74;40.29
72585;BME280;60618;40.084;32.908;2023-02-13T13:34:38;90518.84;;;1.61;39.02
72585;BME280;60618;40.084;32.908;2023-02-13T13:37:29;90509.84;;;1.62;39.99
72585;BME280;60618;40.084;32.908;2023-02-13T13:40:05;90507.41;;;1.41;38.73
72585;BME280;60618;40.084;32.908;2023-02-13T13:42:54;90509.00;;;1.35;39.39
72585;BME280;60618;40.084;32.908;2023-02-13T13:45:37;90513.91;;;1.29;39.66
72585;BME280;60618;40.084;32.908;2023-02-13T13:50:57;90507.41;;;1.00;38.18
72585;BME280;60618;40.084;32.908;2023-02-13T13:53:25;90514.47;;;1.06;40.09
72585;BME280;60618;40.084;32.908;2023-02-13T13:58:25;90505.25;;;0.91;37.13
72585;BME280;60618;40.084;32.908;2023-02-13T14:03:44;90502.31;;;0.82;38.25
72585;BME280;60618;40.084;32.908;2023-02-13T14:06:25;90523.72;;;0.70;38.04
72585;BME280;60618;40.084;32.908;2023-02-13T14:08:59;90515.88;;;0.70;39.21
72585;BME280;60618;40.084;32.908;2023-02-13T14:13:57;90524.16;;;0.61;39.61
72585;BME280;60618;40.084;32.908;2023-02-13T14:16:44;90522.34;;;0.54;39.55
72585;BME280;60618;40.084;32.908;2023-02-13T14:19:37;90517.88;;;0.48;39.76
72585;BME280;60618;40.084;32.908;2023-02-13T14:25:25;90522.03;;;0.42;40.66
72585;BME280;60618;40.084;32.908;2023-02-13T14:28:02;90524.66;;;0.45;41.34
72585;BME280;60618;40.084;32.908;2023-02-13T14:30:32;90519.81;;;0.37;43.01
72585;BME280;60618;40.084;32.908;2023-02-13T14:33:04;90514.59;;;0.33;43.79
72585;BME280;60618;40.084;32.908;2023-02-13T14:35:34;90505.69;;;0.16;44.32
72585;BME280;60618;40.084;32.908;2023-02-13T14:38:07;90513.59;;;0.06;44.69
72585;BME280;60618;40.084;32.908;2023-02-13T14:40:50;90510.25;;;-0.02;44.97
72585;BME280;60618;40.084;32.908;2023-02-13T14:43:22;90514.81;;;-0.13;45.05
72585;BME280;60618;40.084;32.908;2023-02-13T14:51:55;90515.25;;;-0.33;45.41
72585;BME280;60618;40.084;32.908;2023-02-13T14:54:36;90513.41;;;-0.43;47.58
72585;BME280;60618;40.084;32.908;2023-02-13T14:57:08;90517.16;;;-0.47;47.64
72585;BME280;60618;40.084;32.908;2023-02-13T14:59:44;90516.03;;;-0.46;47.82
72585;BME280;60618;40.084;32.908;2023-02-13T15:02:25;90520.91;;;-0.45;47.23
72585;BME280;60618;40.084;32.908;2023-02-13T15:04:58;90517.88;;;-0.40;46.90
72585;BME280;60618;40.084;32.908;2023-02-13T15:07:29;90522.75;;;-0.42;47.44
72585;BME280;60618;40.084;32.908;2023-02-13T15:10:22;90520.47;;;-0.36;47.04
72585;BME280;60618;40.084;32.908;2023-02-13T15:12:57;90517.06;;;-0.19;46.54
72585;BME280;60618;40.084;32.908;2023-02-13T15:15:27;90523.09;;;-0.25;45.89
72585;BME280;60618;40.084;32.908;2023-02-13T15:18:02;90517.84;;;-0.25;45.83
72585;BME280;60618;40.084;32.908;2023-02-13T15:20:34;90521.66;;;-0.44;46.17